Time;durP1;ratioP1;P1;durP2;ratioP2;P2;SDS_P1;SDS_P2;PMS_P1;PMS_P2;Temp;Humidity;BMP_temperature;BMP_pressure;BME280_temperature;BME280_humidity;BME280_pressure;Samples;Min_cycle;Max_cycle;Signal;HPM_P1;HPM_P2
2022/03/11 00:01:48;;;;;;;7.05;2.60;;;-8.00;99.90;;;;;;4936307;29;20411;-88
2022/03/11 00:04:36;;;;;;;7.95;2.75;;;-8.00;99.90;;;;;;4922950;29;20816;-86
2022/03/11 00:07:03;;;;;;;5.90;2.50;;;-8.10;99.90;;;;;;4939323;29;20487;-87
2022/03/11 00:09:31;;;;;;;5.82;2.40;;;-8.10;99.90;;;;;;4933805;29;20414;-89
2022/03/11 00:12:01;;;;;;;5.93;2.63;;;-8.20;99.90;;;;;;4924495;29;20419;-87
2022/03/11 00:14:28;;;;;;;7.30;2.80;;;-8.20;99.90;;;;;;4944817;28;20948;-87
2022/03/11 00:16:56;;;;;;;6.70;2.50;;;-8.20;99.90;;;;;;4934640;29;20414;-87
2022/03/11 00:19:25;;;;;;;7.20;2.60;;;-8.10;99.90;;;;;;4945739;28;20399;-87
2022/03/11 00:21:54;;;;;;;5.30;2.30;;;-8.20;99.90;;;;;;4969184;28;20388;-88
2022/03/11 00:24:22;;;;;;;4.82;2.20;;;-8.20;99.90;;;;;;4969427;28;20456;-88
2022/03/11 00:26:50;;;;;;;7.03;2.67;;;-8.20;99.90;;;;;;4941961;29;20417;-88
2022/03/11 00:29:17;;;;;;;5.68;2.45;;;-8.10;99.90;;;;;;4937062;29;20439;-87
2022/03/11 00:31:45;;;;;;;4.85;2.40;;;-8.10;99.90;;;;;;4915455;29;20408;-86
2022/03/11 00:34:14;;;;;;;6.32;2.53;;;-8.10;99.90;;;;;;4937906;28;20934;-89
2022/03/11 00:36:43;;;;;;;8.50;2.97;;;-8.10;99.90;;;;;;4937609;29;20582;-87
2022/03/11 00:39:12;;;;;;;4.85;2.17;;;-8.20;99.90;;;;;;4934995;29;20467;-88
2022/03/11 00:41:41;;;;;;;5.95;2.50;;;-8.20;99.90;;;;;;4926549;29;20409;-87
2022/03/11 00:44:10;;;;;;;4.53;2.22;;;-8.20;99.90;;;;;;4945140;29;20398;-87
2022/03/11 00:46:37;;;;;;;6.53;2.55;;;-8.20;99.90;;;;;;4953678;29;20481;-88
2022/03/11 00:49:05;;;;;;;5.25;2.40;;;-8.20;99.90;;;;;;4953636;29;20402;-87
2022/03/11 00:51:33;;;;;;;5.43;2.30;;;-8.20;99.90;;;;;;4953361;29;20398;-89
2022/03/11 00:54:01;;;;;;;5.57;2.50;;;-8.20;99.90;;;;;;4953623;29;20911;-87
2022/03/11 00:56:30;;;;;;;6.10;2.43;;;-8.30;99.90;;;;;;4953035;29;20414;-88
2022/03/11 00:58:58;;;;;;;6.68;2.80;;;-8.20;99.90;;;;;;4953492;29;20398;-88
2022/03/11 01:01:25;;;;;;;4.93;2.50;;;-8.30;99.90;;;;;;4953327;29;20416;-87
2022/03/11 01:03:53;;;;;;;5.75;2.65;;;-8.30;99.90;;;;;;4953256;29;20405;-88
2022/03/11 01:06:21;;;;;;;6.05;2.70;;;-8.30;99.90;;;;;;4938376;29;20398;-88
2022/03/11 01:08:48;;;;;;;5.85;2.85;;;-8.30;99.90;;;;;;4953324;29;20410;-86
2022/03/11 01:11:15;;;;;;;6.22;2.70;;;-8.10;99.90;;;;;;4953514;29;20402;-89
2022/03/11 01:13:43;;;;;;;7.53;3.42;;;-8.20;99.90;;;;;;4953032;29;20393;-88
2022/03/11 01:16:11;;;;;;;6.63;3.40;;;-8.20;99.90;;;;;;4937049;29;20413;-90
2022/03/11 01:18:39;;;;;;;7.53;3.13;;;-8.10;99.90;;;;;;4951504;29;20413;-88
2022/03/11 01:21:06;;;;;;;6.50;2.97;;;-8.10;99.90;;;;;;4952755;29;20889;-88
2022/03/11 01:23:35;;;;;;;7.95;3.13;;;-8.10;99.90;;;;;;4952933;29;20390;-86
2022/03/11 01:26:02;;;;;;;6.83;3.40;;;-8.10;99.90;;;;;;4938196;29;20445;-90
2022/03/11 01:28:30;;;;;;;7.32;3.28;;;-8.10;99.90;;;;;;4953092;29;20409;-89
2022/03/11 01:30:57;;;;;;;8.20;3.40;;;-8.00;99.90;;;;;;4952387;29;20398;-87
2022/03/11 01:33:27;;;;;;;6.10;3.30;;;-8.00;99.90;;;;;;4948518;29;20493;-86
2022/03/11 01:35:55;;;;;;;7.93;3.53;;;-8.00;99.90;;;;;;4952627;29;20501;-87
2022/03/11 01:38:22;;;;;;;6.97;3.25;;;-7.90;99.90;;;;;;4937779;29;20401;-87
2022/03/11 01:40:50;;;;;;;6.32;3.28;;;-8.00;99.90;;;;;;4952756;29;20398;-86
2022/03/11 01:43:20;;;;;;;7.93;3.38;;;-8.10;99.90;;;;;;4952324;29;20393;-86
2022/03/11 01:45:48;;;;;;;8.52;3.92;;;-8.20;99.90;;;;;;4952833;29;20492;-88
2022/03/11 01:48:15;;;;;;;6.13;3.30;;;-8.30;99.90;;;;;;4952407;28;20438;-87
2022/03/11 01:50:43;;;;;;;7.38;3.17;;;-8.30;99.90;;;;;;4952917;29;20410;-86
2022/03/11 01:53:13;;;;;;;7.95;3.67;;;-8.20;99.90;;;;;;4952282;29;20450;-87
2022/03/11 01:55:41;;;;;;;8.07;3.47;;;-8.30;99.90;;;;;;4952536;29;20501;-87
2022/03/11 01:58:09;;;;;;;7.70;3.67;;;-8.40;99.90;;;;;;4936680;29;20833;-87
2022/03/11 02:00:40;;;;;;;6.65;3.55;;;-8.40;99.90;;;;;;4936372;29;20490;-86
2022/03/11 02:03:07;;;;;;;7.35;3.47;;;-8.40;99.90;;;;;;4952533;29;20438;-88
2022/03/11 02:05:35;;;;;;;6.95;3.15;;;-8.50;99.90;;;;;;4952540;29;20398;-86
2022/03/11 02:08:03;;;;;;;6.38;3.15;;;-8.40;99.90;;;;;;4943233;28;20419;-86
2022/03/11 02:10:33;;;;;;;6.43;2.70;;;-8.40;99.90;;;;;;4952289;29;20406;-87
2022/03/11 02:13:04;;;;;;;6.77;3.03;;;-8.40;99.90;;;;;;4952357;29;20515;-88
2022/03/11 02:15:32;;;;;;;8.60;3.10;;;-8.30;99.90;;;;;;4951927;29;20408;-87
2022/03/11 02:18:01;;;;;;;6.07;2.60;;;-8.40;99.90;;;;;;4936604;29;20864;-87
2022/03/11 02:20:29;;;;;;;6.93;2.90;;;-8.30;99.90;;;;;;4952082;29;20469;-86
2022/03/11 02:22:57;;;;;;;8.38;2.97;;;-8.30;99.90;;;;;;4952116;29;20426;-88
2022/03/11 02:25:25;;;;;;;5.82;2.60;;;-8.30;99.90;;;;;;4952059;29;20398;-89
2022/03/11 02:27:52;;;;;;;6.20;2.63;;;-8.40;99.90;;;;;;4936107;29;20448;-87
2022/03/11 02:30:21;;;;;;;7.28;2.60;;;-8.20;99.90;;;;;;4951847;29;20464;-89
2022/03/11 02:32:49;;;;;;;5.32;2.45;;;-8.20;99.90;;;;;;4952094;29;20394;-87
2022/03/11 02:35:18;;;;;;;7.93;2.85;;;-8.10;99.90;;;;;;4951822;29;20401;-87
2022/03/11 02:37:45;;;;;;;4.80;2.33;;;-8.00;99.90;;;;;;4951744;29;20504;-87
2022/03/11 02:40:13;;;;;;;7.53;2.65;;;-8.10;99.90;;;;;;4951552;29;20405;-88
2022/03/11 02:42:40;;;;;;;6.40;2.58;;;-8.20;99.90;;;;;;4951572;29;20390;-87
2022/03/11 02:45:09;;;;;;;5.93;2.90;;;-8.30;99.90;;;;;;4951670;29;20948;-86
2022/03/11 02:47:37;;;;;;;6.35;2.67;;;-8.40;99.90;;;;;;4951448;29;20405;-86
2022/03/11 02:50:05;;;;;;;5.60;2.75;;;-8.30;99.90;;;;;;4951423;29;20398;-87
2022/03/11 02:52:33;;;;;;;5.93;2.78;;;-8.40;99.90;;;;;;4935476;29;20441;-86
2022/03/11 02:55:00;;;;;;;7.43;2.97;;;-8.30;99.90;;;;;;4952157;29;20453;-86
2022/03/11 02:57:28;;;;;;;6.60;2.67;;;-8.20;99.90;;;;;;4938631;29;20416;-86
2022/03/11 02:59:55;;;;;;;7.40;3.17;;;-8.20;99.90;;;;;;4953875;28;20405;-87
2022/03/11 03:02:23;;;;;;;6.50;2.93;;;-8.20;99.90;;;;;;4954374;29;20401;-87
2022/03/11 03:04:51;;;;;;;8.02;3.22;;;-8.10;99.90;;;;;;4938345;29;20405;-87
2022/03/11 03:07:19;;;;;;;7.18;3.00;;;-8.20;99.90;;;;;;4954538;29;20415;-87
2022/03/11 03:09:46;;;;;;;6.05;2.70;;;-8.20;99.90;;;;;;4954305;29;20419;-86
2022/03/11 03:12:14;;;;;;;7.13;3.00;;;-8.20;99.90;;;;;;4955402;29;20438;-86
2022/03/11 03:14:41;;;;;;;6.40;3.00;;;-8.10;99.90;;;;;;4954205;29;20412;-86
2022/03/11 03:17:12;;;;;;;7.25;2.92;;;-8.10;99.90;;;;;;4953981;29;20436;-88
2022/03/11 03:19:40;;;;;;;7.10;2.90;;;-8.10;99.90;;;;;;4938191;29;20460;-88
2022/03/11 03:22:07;;;;;;;7.00;3.08;;;-8.10;99.90;;;;;;4954145;29;20444;-89
2022/03/11 03:24:35;;;;;;;6.35;2.67;;;-8.10;99.90;;;;;;4955056;29;20418;-86
2022/03/11 03:27:03;;;;;;;7.18;3.08;;;-8.10;99.90;;;;;;4953981;29;20411;-88
2022/03/11 03:29:30;;;;;;;7.25;2.60;;;-8.00;99.90;;;;;;4953798;29;20882;-87
2022/03/11 03:31:58;;;;;;;6.70;2.70;;;-8.00;99.90;;;;;;4953774;29;20443;-86
2022/03/11 03:34:33;;;;;;;7.28;3.00;;;-8.10;99.90;;;;;;4954815;29;20407;-87
2022/03/11 03:37:05;;;;;;;7.22;3.00;;;-8.10;99.90;;;;;;4954756;29;20467;-89
2022/03/11 03:39:36;;;;;;;7.53;2.90;;;-8.10;99.90;;;;;;4953831;29;20404;-88
2022/03/11 03:42:04;;;;;;;5.18;2.58;;;-8.10;99.90;;;;;;4937832;29;20495;-89
2022/03/11 03:44:32;;;;;;;5.65;2.72;;;-8.10;99.90;;;;;;4953543;29;20396;-87
2022/03/11 03:46:59;;;;;;;6.50;2.20;;;-8.10;99.90;;;;;;4937544;29;20408;-88
2022/03/11 03:49:28;;;;;;;5.65;2.67;;;-8.10;99.90;;;;;;4953555;29;20415;-89
2022/03/11 03:51:56;;;;;;;7.07;2.58;;;-8.20;99.90;;;;;;4953659;29;20415;-89
2022/03/11 03:54:24;;;;;;;4.53;2.33;;;-8.20;99.90;;;;;;4953602;29;20450;-89
2022/03/11 03:56:51;;;;;;;6.57;2.63;;;-8.10;99.90;;;;;;4937276;29;20455;-88
2022/03/11 03:59:19;;;;;;;5.40;2.15;;;-8.10;99.90;;;;;;4937895;28;20465;-88
2022/03/11 04:01:46;;;;;;;5.35;2.30;;;-8.10;99.90;;;;;;4948440;29;20489;-87
2022/03/11 04:04:14;;;;;;;6.70;2.50;;;-8.10;99.90;;;;;;4949888;29;20932;-89
2022/03/11 04:06:42;;;;;;;7.22;2.35;;;-8.00;99.90;;;;;;4949932;29;20920;-89
2022/03/11 04:09:10;;;;;;;5.63;2.50;;;-8.10;99.90;;;;;;4934427;29;20394;-87
2022/03/11 04:11:37;;;;;;;6.47;2.70;;;-8.00;99.90;;;;;;4949308;28;20432;-86
2022/03/11 04:14:05;;;;;;;5.60;2.30;;;-8.00;99.90;;;;;;4934282;29;20398;-88
2022/03/11 04:16:32;;;;;;;5.25;2.13;;;-8.00;99.90;;;;;;4935245;29;20421;-89
2022/03/11 04:19:00;;;;;;;6.10;2.38;;;-8.00;99.90;;;;;;4949698;29;20492;-88
2022/03/11 04:21:28;;;;;;;6.72;2.67;;;-8.00;99.90;;;;;;4950173;29;20417;-88
2022/03/11 04:23:56;;;;;;;5.05;2.55;;;-8.00;99.90;;;;;;4933841;29;20401;-88
2022/03/11 04:26:24;;;;;;;5.97;2.40;;;-8.00;99.90;;;;;;4934284;29;20414;-86
2022/03/11 04:28:51;;;;;;;4.32;2.28;;;-8.00;99.90;;;;;;4934382;29;20452;-87
2022/03/11 04:31:19;;;;;;;4.93;2.30;;;-8.00;99.90;;;;;;4934302;29;20418;-87
2022/03/11 04:33:46;;;;;;;4.35;2.10;;;-8.00;99.90;;;;;;4933596;29;20947;-86
2022/03/11 04:36:15;;;;;;;5.03;2.47;;;-8.00;99.90;;;;;;4934108;29;20398;-87
2022/03/11 04:38:42;;;;;;;5.45;2.30;;;-8.00;99.90;;;;;;4949653;29;20414;-87
2022/03/11 04:41:09;;;;;;;8.07;2.90;;;-8.10;99.90;;;;;;4936451;28;20408;-87
2022/03/11 04:43:37;;;;;;;6.72;3.00;;;-8.10;99.90;;;;;;4942465;29;20426;-87
2022/03/11 04:46:05;;;;;;;6.75;2.53;;;-8.00;99.90;;;;;;4934312;29;20453;-86
2022/03/11 04:48:33;;;;;;;7.18;2.90;;;-8.10;99.90;;;;;;4917835;29;20497;-87
2022/03/11 04:51:03;;;;;;;5.45;2.38;;;-8.20;99.90;;;;;;4918073;29;20410;-87
2022/03/11 04:53:31;;;;;;;5.30;2.40;;;-8.10;99.90;;;;;;4918299;29;20414;-86
2022/03/11 04:55:58;;;;;;;5.80;2.70;;;-8.10;99.90;;;;;;4917767;29;20450;-87
2022/03/11 04:58:26;;;;;;;5.90;2.63;;;-8.00;99.90;;;;;;4917659;29;20773;-87
2022/03/11 05:00:59;;;;;;;6.05;2.60;;;-8.00;99.90;;;;;;4940658;28;20503;-86
2022/03/11 05:03:36;;;;;;;6.47;2.90;;;-8.00;99.90;;;;;;4936536;29;20413;-88
2022/03/11 05:06:09;;;;;;;6.57;3.03;;;-8.00;99.90;;;;;;4937938;29;20396;-87
2022/03/11 05:08:37;;;;;;;7.78;2.97;;;-7.90;99.90;;;;;;4921448;29;20416;-86
2022/03/11 05:11:05;;;;;;;7.17;2.97;;;-7.90;99.90;;;;;;4936661;29;20410;-86
2022/03/11 05:13:32;;;;;;;8.73;3.00;;;-7.80;99.90;;;;;;4953041;29;20404;-86
2022/03/11 05:16:00;;;;;;;9.45;3.50;;;-7.70;99.90;;;;;;4953071;29;20616;-89
2022/03/11 05:18:29;;;;;;;8.15;2.80;;;-7.80;99.90;;;;;;4949954;28;20442;-88
2022/03/11 05:20:56;;;;;;;6.63;2.80;;;-7.80;99.90;;;;;;4955858;28;20478;-86
2022/03/11 05:23:23;;;;;;;7.25;3.30;;;-7.70;99.90;;;;;;4938274;28;20409;-86
2022/03/11 05:25:51;;;;;;;8.02;3.10;;;-7.70;99.90;;;;;;4936935;29;20452;-85
2022/03/11 05:28:19;;;;;;;5.35;2.90;;;-7.60;99.90;;;;;;4957486;28;20404;-85
2022/03/11 05:30:46;;;;;;;7.10;3.07;;;-7.60;99.90;;;;;;4955854;29;20455;-88
2022/03/11 05:33:15;;;;;;;6.53;3.20;;;-7.60;99.90;;;;;;4960480;28;20447;-89
2022/03/11 05:35:43;;;;;;;8.13;3.20;;;-7.50;99.90;;;;;;4945913;28;20467;-86
2022/03/11 05:38:10;;;;;;;7.40;2.90;;;-7.60;99.90;;;;;;4939799;29;20443;-86
2022/03/11 05:40:38;;;;;;;6.80;2.90;;;-7.40;99.90;;;;;;4947975;29;20471;-87
2022/03/11 05:43:05;;;;;;;7.28;2.95;;;-7.30;99.90;;;;;;4969680;28;20396;-86
2022/03/11 05:45:33;;;;;;;7.90;3.50;;;-7.40;99.90;;;;;;4955784;29;20404;-86
2022/03/11 05:48:00;;;;;;;7.50;2.90;;;-7.40;99.90;;;;;;4939941;29;20404;-86
2022/03/11 05:50:28;;;;;;;6.85;2.88;;;-7.30;99.90;;;;;;4956431;28;20979;-86
2022/03/11 05:52:55;;;;;;;6.47;2.75;;;-7.20;99.90;;;;;;4948572;29;20795;-87
2022/03/11 05:55:23;;;;;;;6.45;2.67;;;-7.20;99.90;;;;;;4955220;28;20419;-87
2022/03/11 05:57:51;;;;;;;6.72;3.10;;;-7.10;99.90;;;;;;4971840;28;20420;-86
2022/03/11 06:00:18;;;;;;;6.43;2.38;;;-7.10;99.90;;;;;;4963795;28;20572;-87
2022/03/11 06:02:46;;;;;;;6.47;2.40;;;-6.90;99.90;;;;;;4943133;28;20393;-86
2022/03/11 06:05:14;;;;;;;5.25;2.13;;;-6.90;99.90;;;;;;4974311;28;20753;-86
2022/03/11 06:07:42;;;;;;;6.30;2.50;;;-6.80;99.90;;;;;;4934229;29;20895;-87
2022/03/11 06:10:09;;;;;;;4.75;2.72;;;-6.70;99.90;;;;;;4955941;29;20400;-84
2022/03/11 06:12:37;;;;;;;5.57;2.23;;;-6.70;99.90;;;;;;4951119;28;20485;-87
2022/03/11 06:15:09;;;;;;;4.93;2.30;;;-6.80;99.90;;;;;;4920577;29;20437;-86
2022/03/11 06:17:37;;;;;;;6.05;2.42;;;-6.60;99.90;;;;;;4920311;29;20761;-87
2022/03/11 06:20:09;;;;;;;5.43;2.30;;;-6.50;99.90;;;;;;4920153;29;20919;-88
2022/03/11 06:22:37;;;;;;;4.50;2.10;;;-6.50;99.90;;;;;;4920199;29;20734;-86
2022/03/11 06:25:05;;;;;;;4.70;2.38;;;-6.40;99.90;;;;;;4936963;29;20489;-87
2022/03/11 06:27:32;;;;;;;7.60;2.47;;;-6.30;99.90;;;;;;4936244;29;20398;-87
2022/03/11 06:30:00;;;;;;;13.87;3.17;;;-6.30;99.90;;;;;;4920087;29;20413;-88
2022/03/11 06:32:27;;;;;;;6.15;2.53;;;-6.40;99.90;;;;;;4952595;29;20447;-89
2022/03/11 06:34:54;;;;;;;6.15;2.50;;;-6.10;99.90;;;;;;4951989;28;20406;-86
2022/03/11 06:37:22;;;;;;;7.57;2.63;;;-6.10;99.90;;;;;;4904164;29;20485;-88
2022/03/11 06:39:49;;;;;;;6.85;3.17;;;-6.10;99.90;;;;;;4935845;29;20413;-86
2022/03/11 06:42:17;;;;;;;7.13;2.80;;;-6.00;99.90;;;;;;4919698;29;20409;-87
2022/03/11 06:44:44;;;;;;;6.78;2.90;;;-6.00;99.90;;;;;;4919744;29;20416;-87
2022/03/11 06:47:12;;;;;;;5.70;2.80;;;-5.90;99.90;;;;;;4904181;29;20437;-87
2022/03/11 06:49:43;;;;;;;5.75;2.63;;;-5.90;99.90;;;;;;4936619;29;20414;-85
2022/03/11 06:52:10;;;;;;;6.03;2.90;;;-5.60;99.90;;;;;;4935206;29;20402;-84
2022/03/11 06:54:38;;;;;;;7.25;2.97;;;-5.50;99.90;;;;;;4940124;29;20404;-85
2022/03/11 06:57:07;;;;;;;8.57;3.40;;;-5.50;99.90;;;;;;4940663;29;20512;-86
2022/03/11 06:59:38;;;;;;;7.38;3.28;;;-5.60;99.90;;;;;;4952433;29;20424;-85
2022/03/11 07:02:06;;;;;;;8.60;3.25;;;-5.60;99.90;;;;;;4950804;29;20429;-86
2022/03/11 07:04:34;;;;;;;6.20;2.90;;;-5.30;99.90;;;;;;4934771;29;20402;-86
2022/03/11 07:07:02;;;;;;;7.10;3.35;;;-5.20;99.90;;;;;;4919114;29;20457;-85
2022/03/11 07:09:29;;;;;;;6.40;2.90;;;-5.10;99.90;;;;;;4942602;29;20519;-85
2022/03/11 07:11:57;;;;;;;7.78;3.47;;;-5.20;99.90;;;;;;4950586;29;20402;-86
2022/03/11 07:14:25;;;;;;;9.18;3.67;;;-5.10;99.90;;;;;;4934557;29;20421;-86
2022/03/11 07:16:53;;;;;;;6.93;3.30;;;-5.10;99.90;;;;;;4934469;29;20484;-85
2022/03/11 07:19:20;;;;;;;7.30;3.43;;;-5.10;99.90;;;;;;4950591;29;20406;-85
2022/03/11 07:21:48;;;;;;;7.18;3.55;;;-4.80;99.90;;;;;;4934670;29;20394;-84
2022/03/11 07:24:16;;;;;;;9.35;3.42;;;-4.80;99.90;;;;;;4935665;29;20526;-85
2022/03/11 07:26:43;;;;;;;7.88;3.22;;;-4.80;99.90;;;;;;4934537;29;20398;-85
2022/03/11 07:29:11;;;;;;;9.63;3.58;;;-4.80;99.90;;;;;;4950526;29;20413;-86
2022/03/11 07:31:38;;;;;;;9.68;3.60;;;-4.80;99.90;;;;;;4934401;29;20409;-87
2022/03/11 07:34:06;;;;;;;8.23;3.50;;;-4.80;99.90;;;;;;4934970;29;20394;-85
2022/03/11 07:36:34;;;;;;;8.57;3.83;;;-4.90;99.90;;;;;;4934208;29;20405;-88
2022/03/11 07:39:03;;;;;;;8.23;3.90;;;-4.80;99.90;;;;;;4934422;29;20908;-88
2022/03/11 07:41:32;;;;;;;9.60;3.92;;;-4.70;99.90;;;;;;4934214;29;20449;-88
2022/03/11 07:43:59;;;;;;;7.95;3.83;;;-4.70;99.90;;;;;;4934232;29;20429;-88
2022/03/11 07:46:40;;;;;;;8.82;3.80;;;-4.70;99.90;;;;;;4953070;28;20412;-87
2022/03/11 07:49:07;;;;;;;8.95;3.90;;;-4.60;99.90;;;;;;4922004;29;20811;-88
2022/03/11 07:51:35;;;;;;;9.35;4.10;;;-4.60;99.90;;;;;;4937376;29;20749;-86
2022/03/11 07:54:03;;;;;;;8.43;3.50;;;-4.60;99.90;;;;;;4937704;29;20424;-85
2022/03/11 07:56:30;;;;;;;10.57;4.10;;;-4.50;99.90;;;;;;4937267;29;20408;-86
2022/03/11 07:58:58;;;;;;;8.75;4.20;;;-4.40;99.90;;;;;;4953429;29;20420;-86
2022/03/11 08:01:26;;;;;;;8.32;3.70;;;-4.50;99.90;;;;;;4937039;29;20404;-85
2022/03/11 08:03:54;;;;;;;9.32;3.63;;;-4.30;99.90;;;;;;4908799;29;20501;-86
2022/03/11 08:06:21;;;;;;;7.72;3.67;;;-4.20;99.90;;;;;;4934762;29;20880;-86
2022/03/11 08:08:49;;;;;;;7.28;2.92;;;-4.10;99.90;;;;;;4917960;29;20466;-87
2022/03/11 08:11:17;;;;;;;7.00;3.00;;;-4.20;99.90;;;;;;4933786;29;20421;-85
2022/03/11 08:13:44;;;;;;;8.60;3.38;;;-4.20;99.90;;;;;;4934060;29;20916;-86
2022/03/11 08:16:12;;;;;;;7.10;2.90;;;-4.00;99.90;;;;;;4933823;29;20448;-86
2022/03/11 08:18:40;;;;;;;6.90;3.20;;;-4.00;99.90;;;;;;4933705;29;20413;-84
2022/03/11 08:21:10;;;;;;;7.70;3.30;;;-3.90;99.90;;;;;;4933796;29;20409;-86
2022/03/11 08:23:39;;;;;;;7.70;3.45;;;-4.00;99.90;;;;;;4938745;28;20401;-86
2022/03/11 08:26:06;;;;;;;7.07;3.15;;;-3.90;99.90;;;;;;4933823;29;20402;-86
2022/03/11 08:28:34;;;;;;;8.73;3.50;;;-3.90;99.90;;;;;;4961786;28;20514;-86
2022/03/11 08:31:02;;;;;;;7.97;3.50;;;-3.90;99.90;;;;;;4960332;28;20404;-85
2022/03/11 08:33:30;;;;;;;8.50;3.58;;;-3.90;99.90;;;;;;4940680;28;20394;-85
2022/03/11 08:36:18;;;;;;;9.65;4.03;;;-3.70;99.90;;;;;;4950875;29;20747;-87
2022/03/11 08:38:46;;;;;;;6.93;3.38;;;-3.60;99.90;;;;;;4936538;29;20409;-86
2022/03/11 08:41:14;;;;;;;8.25;3.50;;;-3.70;99.90;;;;;;4936756;29;20396;-87
2022/03/11 08:43:41;;;;;;;8.63;3.83;;;-3.70;99.90;;;;;;4948561;29;20437;-87
2022/03/11 08:46:11;;;;;;;8.53;3.30;;;-3.60;99.90;;;;;;4932652;29;20780;-87
2022/03/11 08:48:41;;;;;;;7.35;3.40;;;-3.50;99.90;;;;;;4942885;29;20396;-85
2022/03/11 08:51:09;;;;;;;8.30;3.90;;;-3.40;99.80;;;;;;4953909;29;20486;-87
2022/03/11 08:53:36;;;;;;;6.63;3.50;;;-3.50;99.90;;;;;;4952610;29;20954;-87
2022/03/11 08:56:04;;;;;;;6.38;3.22;;;-3.40;99.90;;;;;;4936957;28;20416;-87
2022/03/11 08:58:32;;;;;;;9.35;4.00;;;-3.40;99.90;;;;;;4955783;29;20488;-87
2022/03/11 09:00:59;;;;;;;8.65;3.45;;;-3.40;99.90;;;;;;4956971;29;20404;-87
2022/03/11 09:03:27;;;;;;;11.25;3.78;;;-3.30;99.90;;;;;;4953439;29;20402;-87
2022/03/11 09:05:56;;;;;;;8.52;3.80;;;-3.30;99.90;;;;;;4953147;29;20405;-87
2022/03/11 09:08:23;;;;;;;7.03;3.35;;;-3.40;99.90;;;;;;4950279;29;20883;-87
2022/03/11 09:10:51;;;;;;;8.68;3.70;;;-3.30;99.90;;;;;;4940539;29;20420;-88
2022/03/11 09:13:19;;;;;;;7.63;3.30;;;-3.20;99.90;;;;;;4956193;29;20411;-88
2022/03/11 09:15:46;;;;;;;7.70;3.90;;;-3.10;99.90;;;;;;4940556;29;20499;-88
2022/03/11 09:18:14;;;;;;;6.50;3.40;;;-3.00;99.90;;;;;;4939373;29;20592;-87
2022/03/11 09:20:42;;;;;;;9.30;3.67;;;-2.80;99.90;;;;;;4954923;29;20428;-87
2022/03/11 09:23:11;;;;;;;9.00;3.72;;;-2.80;99.90;;;;;;4924355;29;20450;-85
2022/03/11 09:25:39;;;;;;;7.97;3.60;;;-2.70;99.90;;;;;;4929998;29;20481;-87
2022/03/11 09:28:07;;;;;;;8.13;3.75;;;-2.70;99.90;;;;;;4938210;29;20403;-87
2022/03/11 09:30:35;;;;;;;7.78;3.80;;;-2.70;99.90;;;;;;4956301;29;20911;-87
2022/03/11 09:33:03;;;;;;;9.17;4.07;;;-2.60;99.90;;;;;;4956326;29;20516;-87
2022/03/11 09:35:30;;;;;;;9.05;3.88;;;-2.50;99.90;;;;;;4940151;29;20416;-87
2022/03/11 09:37:58;;;;;;;7.93;3.60;;;-2.50;99.90;;;;;;4955842;29;20411;-87
2022/03/11 09:40:25;;;;;;;7.22;3.55;;;-2.40;99.90;;;;;;4924016;29;20412;-88
2022/03/11 09:42:53;;;;;;;7.47;3.50;;;-2.30;99.90;;;;;;4940053;29;20392;-87
2022/03/11 09:45:23;;;;;;;8.07;3.20;;;-2.20;99.90;;;;;;4939648;29;20397;-87
2022/03/11 09:47:51;;;;;;;7.80;3.90;;;-1.90;99.90;;;;;;4939619;29;20404;-88
2022/03/11 09:50:19;;;;;;;9.23;3.20;;;-1.80;99.90;;;;;;4956894;29;20891;-88
2022/03/11 09:52:52;;;;;;;8.38;3.38;;;-1.80;99.50;;;;;;4955755;28;20447;-88
2022/03/11 09:55:20;;;;;;;9.10;3.40;;;-1.80;98.20;;;;;;4936238;29;20749;-87
2022/03/11 09:57:47;;;;;;;8.15;3.78;;;-1.70;99.60;;;;;;4952106;29;20505;-87
2022/03/11 10:00:15;;;;;;;8.77;3.55;;;-1.90;99.90;;;;;;4948343;28;20407;-88
2022/03/11 10:02:45;;;;;;;7.97;3.15;;;-1.90;99.90;;;;;;4949477;29;20413;-87
2022/03/11 10:05:14;;;;;;;7.85;3.17;;;-1.70;99.90;;;;;;4937339;29;20892;-87
2022/03/11 10:08:30;;;;;;;7.70;3.17;;;-1.40;97.80;;;;;;4950484;29;20397;-87
2022/03/11 10:11:18;;;;;;;10.30;3.10;;;-1.50;98.50;;;;;;4936248;29;20772;-87
2022/03/11 10:13:53;;;;;;;8.65;3.55;;;-1.50;98.30;;;;;;4952400;29;20418;-88
2022/03/11 10:16:24;;;;;;;7.27;3.53;;;-1.40;98.30;;;;;;4937293;29;20421;-88
2022/03/11 10:18:56;;;;;;;8.07;3.03;;;-1.30;99.90;;;;;;4937083;29;20421;-87
2022/03/11 10:21:32;;;;;;;8.35;3.30;;;-1.10;97.70;;;;;;4951638;29;20434;-87
2022/03/11 10:24:02;;;;;;;5.80;2.90;;;-1.00;98.80;;;;;;4935873;29;20505;-87
2022/03/11 10:26:42;;;;;;;7.93;3.10;;;-1.00;99.30;;;;;;4935979;29;20403;-88
2022/03/11 10:29:15;;;;;;;7.37;3.20;;;-0.90;97.90;;;;;;4936977;29;20492;-86
2022/03/11 10:31:45;;;;;;;7.03;3.27;;;-0.70;96.80;;;;;;4932396;29;20411;-87
2022/03/11 10:34:19;;;;;;;5.65;3.10;;;-0.70;97.80;;;;;;4943747;29;20409;-87
2022/03/11 10:36:59;;;;;;;6.50;2.90;;;-0.40;96.20;;;;;;4940044;29;20912;-86
2022/03/11 10:39:29;;;;;;;7.55;3.45;;;-0.40;96.70;;;;;;4950533;28;20409;-87
2022/03/11 10:42:12;;;;;;;6.90;2.70;;;-0.40;97.10;;;;;;4930596;29;20465;-88
2022/03/11 10:45:00;;;;;;;6.70;3.15;;;-0.40;97.10;;;;;;4916429;29;20400;-87
2022/03/11 10:47:31;;;;;;;9.10;3.77;;;-0.20;96.60;;;;;;4916865;29;20400;-88
2022/03/11 10:50:04;;;;;;;7.10;3.20;;;-0.20;97.90;;;;;;4932449;29;20480;-88
2022/03/11 10:52:45;;;;;;;7.03;3.20;;;-0.10;97.20;;;;;;4932514;29;20405;-89
2022/03/11 10:55:29;;;;;;;6.85;3.17;;;-0.10;97.20;;;;;;4934691;29;20414;-87
2022/03/11 10:57:58;;;;;;;7.38;3.30;;;0.00;96.30;;;;;;4935497;29;20466;-88
2022/03/11 11:00:31;;;;;;;8.65;3.80;;;0.10;96.40;;;;;;4935551;29;20398;-88
2022/03/11 11:03:05;;;;;;;8.05;3.53;;;0.00;97.40;;;;;;4931752;29;20449;-88
2022/03/11 11:05:33;;;;;;;12.07;3.25;;;0.30;96.20;;;;;;4938374;29;20440;-87
2022/03/11 11:08:03;;;;;;;7.15;3.50;;;0.50;96.70;;;;;;4936594;29;20410;-89
2022/03/11 11:10:33;;;;;;;7.70;3.35;;;0.50;97.30;;;;;;4919266;29;20414;-88
2022/03/11 11:13:01;;;;;;;7.63;3.50;;;0.70;96.30;;;;;;4919355;29;20474;-89
2022/03/11 11:15:28;;;;;;;7.38;3.10;;;0.70;97.80;;;;;;4903690;29;20461;-88
2022/03/11 11:18:00;;;;;;;9.45;3.35;;;0.80;96.20;;;;;;4934969;29;20438;-87
2022/03/11 11:20:39;;;;;;;6.50;3.33;;;0.80;96.60;;;;;;4918843;29;20493;-88
2022/03/11 11:23:08;;;;;;;6.97;3.10;;;0.80;95.00;;;;;;4919435;29;20401;-88
2022/03/11 11:25:37;;;;;;;7.25;3.13;;;0.90;95.70;;;;;;4934899;29;20457;-88
2022/03/11 11:28:14;;;;;;;6.63;3.00;;;1.00;94.30;;;;;;4919574;29;20398;-86
2022/03/11 11:30:45;;;;;;;6.97;3.03;;;1.00;94.90;;;;;;4934772;29;20430;-88
2022/03/11 11:33:16;;;;;;;7.53;3.20;;;1.00;96.50;;;;;;4919283;29;20426;-88
2022/03/11 11:35:44;;;;;;;6.05;3.13;;;0.90;95.00;;;;;;4932561;29;20401;-87
2022/03/11 11:38:33;;;;;;;6.25;3.05;;;0.90;94.80;;;;;;4937186;29;20471;-88
2022/03/11 11:41:03;;;;;;;7.20;3.22;;;1.00;94.50;;;;;;4934549;29;20441;-88
2022/03/11 11:43:32;;;;;;;6.93;3.50;;;1.10;94.20;;;;;;4943961;28;20462;-89
2022/03/11 11:46:02;;;;;;;9.37;3.17;;;1.20;95.60;;;;;;4937754;29;20401;-88
2022/03/11 11:48:33;;;;;;;8.73;3.42;;;1.30;94.80;;;;;;4919751;29;20893;-88
2022/03/11 11:51:02;;;;;;;5.78;2.95;;;1.20;94.30;;;;;;4934506;29;20405;-87
2022/03/11 11:53:40;;;;;;;7.28;3.38;;;1.40;93.60;;;;;;4935607;29;20398;-87
2022/03/11 11:56:32;;;;;;;7.38;3.35;;;1.40;94.30;;;;;;4911921;29;20402;-87
2022/03/11 11:59:02;;;;;;;8.73;3.60;;;1.50;94.20;;;;;;4929972;29;20519;-85
2022/03/11 12:01:38;;;;;;;8.07;3.53;;;1.60;94.30;;;;;;4944441;28;20399;-87
2022/03/11 12:04:37;;;;;;;7.35;3.17;;;1.70;95.70;;;;;;4942948;28;21506;-87
2022/03/11 12:07:16;;;;;;;7.93;3.60;;;1.90;93.80;;;;;;4938462;28;20418;-87
2022/03/11 12:10:00;;;;;;;8.67;3.47;;;1.80;94.80;;;;;;4933913;28;20496;-86
2022/03/11 12:12:29;;;;;;;8.25;3.67;;;1.90;93.30;;;;;;4943080;28;20411;-86
2022/03/11 12:17:37;;;;;;;7.40;3.55;;;2.00;95.90;;;;;;4934032;29;20404;-87
2022/03/11 12:20:32;;;;;;;6.55;3.40;;;2.00;95.00;;;;;;4949777;29;20453;-88
2022/03/11 12:23:06;;;;;;;8.35;3.28;;;2.10;96.30;;;;;;4934349;29;20406;-88
2022/03/11 12:25:57;;;;;;;7.40;3.60;;;2.30;94.70;;;;;;4934460;29;20409;-88
2022/03/11 12:28:34;;;;;;;8.70;3.70;;;2.40;95.10;;;;;;4953008;29;20405;-88
2022/03/11 12:31:23;;;;;;;7.75;3.50;;;2.30;94.40;;;;;;4953510;28;20495;-87
2022/03/11 12:33:54;;;;;;;8.45;3.80;;;2.30;94.20;;;;;;4943599;29;20414;-88
2022/03/11 12:36:27;;;;;;;9.17;4.00;;;2.30;93.80;;;;;;4930636;29;20467;-88
2022/03/11 12:38:55;;;;;;;8.73;4.00;;;2.40;94.80;;;;;;4930640;29;20423;-88
2022/03/11 12:41:28;;;;;;;11.05;4.30;;;2.40;95.70;;;;;;4949881;29;20398;-88
2022/03/11 12:43:59;;;;;;;8.30;4.10;;;2.50;94.90;;;;;;4949995;29;20421;-87
2022/03/11 12:46:27;;;;;;;9.55;4.10;;;2.30;95.70;;;;;;4949702;29;20422;-86
2022/03/11 12:48:54;;;;;;;8.50;3.30;;;2.40;95.70;;;;;;4949560;29;20405;-87
2022/03/11 12:51:24;;;;;;;8.50;3.75;;;2.60;95.20;;;;;;4949775;29;20414;-87
2022/03/11 12:53:53;;;;;;;7.70;4.20;;;2.80;95.00;;;;;;4950148;29;20434;-90
2022/03/11 12:56:23;;;;;;;8.68;4.68;;;2.90;94.80;;;;;;4949422;29;20412;-89
2022/03/11 12:58:53;;;;;;;7.95;3.90;;;2.90;95.00;;;;;;4949445;29;20806;-89
2022/03/11 13:01:22;;;;;;;7.88;3.90;;;2.90;94.90;;;;;;4923152;29;20399;-89
2022/03/11 13:03:52;;;;;;;9.32;4.40;;;2.90;94.30;;;;;;4930436;29;20399;-88